sensor_id;sensor_type;location;lat;lon;timestamp;temperature;humidity
12268;DHT22;6196;48.398;11.736;2023-08-08T00:01:57;11.70;99.90
12268;DHT22;6196;48.398;11.736;2023-08-08T00:04:24;11.60;99.90
12268;DHT22;6196;48.398;11.736;2023-08-08T00:06:51;11.60;99.90
12268;DHT22;6196;48.398;11.736;2023-08-08T00:09:18;11.60;99.90
12268;DHT22;6196;48.398;11.736;2023-08-08T00:11:44;11.60;99.90
12268;DHT22;6196;48.398;11.736;2023-08-08T00:14:11;11.50;99.90
12268;DHT22;6196;48.398;11.736;2023-08-08T00:16:38;11.60;99.90
12268;DHT22;6196;48.398;11.736;2023-08-08T00:19:06;11.70;99.90
12268;DHT22;6196;48.398;11.736;2023-08-08T00:21:32;11.70;99.90
12268;DHT22;6196;48.398;11.736;2023-08-08T00:23:59;11.70;99.90
12268;DHT22;6196;48.398;11.736;2023-08-08T00:26:26;11.70;99.90
12268;DHT22;6196;48.398;11.736;2023-08-08T00:28:53;11.70;99.90
12268;DHT22;6196;48.398;11.736;2023-08-08T00:31:20;11.80;99.90
12268;DHT22;6196;48.398;11.736;2023-08-08T00:33:47;11.70;99.90
12268;DHT22;6196;48.398;11.736;2023-08-08T00:36:14;11.70;99.90
12268;DHT22;6196;48.398;11.736;2023-08-08T00:38:41;11.80;99.90
12268;DHT22;6196;48.398;11.736;2023-08-08T00:41:07;11.60;99.90
12268;DHT22;6196;48.398;11.736;2023-08-08T00:43:34;11.60;99.90
12268;DHT22;6196;48.398;11.736;2023-08-08T00:46:01;11.50;99.90
12268;DHT22;6196;48.398;11.736;2023-08-08T00:48:30;11.60;99.90
12268;DHT22;6196;48.398;11.736;2023-08-08T00:50:57;11.70;99.90
12268;DHT22;6196;48.398;11.736;2023-08-08T00:53:24;11.70;99.90
12268;DHT22;6196;48.398;11.736;2023-08-08T00:55:53;11.70;99.90
12268;DHT22;6196;48.398;11.736;2023-08-08T00:58:21;11.80;99.90
12268;DHT22;6196;48.398;11.736;2023-08-08T01:00:47;11.70;99.90
12268;DHT22;6196;48.398;11.736;2023-08-08T01:03:14;11.70;99.90
12268;DHT22;6196;48.398;11.736;2023-08-08T01:05:49;11.70;99.90
12268;DHT22;6196;48.398;11.736;2023-08-08T01:08:23;11.70;99.90
12268;DHT22;6196;48.398;11.736;2023-08-08T01:10:54;11.70;99.90
12268;DHT22;6196;48.398;11.736;2023-08-08T01:13:22;11.70;99.90
12268;DHT22;6196;48.398;11.736;2023-08-08T01:15:50;11.70;99.90
12268;DHT22;6196;48.398;11.736;2023-08-08T01:18:19;11.60;99.90
12268;DHT22;6196;48.398;11.736;2023-08-08T01:20:46;11.60;99.90
12268;DHT22;6196;48.398;11.736;2023-08-08T01:23:29;11.70;99.90
12268;DHT22;6196;48.398;11.736;2023-08-08T01:25:59;11.70;99.90
12268;DHT22;6196;48.398;11.736;2023-08-08T01:28:27;11.90;99.90
12268;DHT22;6196;48.398;11.736;2023-08-08T01:30:54;11.70;99.90
12268;DHT22;6196;48.398;11.736;2023-08-08T01:33:21;11.80;99.90
12268;DHT22;6196;48.398;11.736;2023-08-08T01:35:54;11.80;99.90
12268;DHT22;6196;48.398;11.736;2023-08-08T01:38:36;11.80;99.90
12268;DHT22;6196;48.398;11.736;2023-08-08T01:41:06;11.70;99.90
12268;DHT22;6196;48.398;11.736;2023-08-08T01:43:34;11.70;99.90
12268;DHT22;6196;48.398;11.736;2023-08-08T01:46:04;11.80;99.90
12268;DHT22;6196;48.398;11.736;2023-08-08T01:48:32;11.70;99.90
12268;DHT22;6196;48.398;11.736;2023-08-08T01:50:59;11.70;99.90
12268;DHT22;6196;48.398;11.736;2023-08-08T01:53:26;11.80;99.90
12268;DHT22;6196;48.398;11.736;2023-08-08T01:55:53;11.80;99.90
12268;DHT22;6196;48.398;11.736;2023-08-08T01:58:20;11.70;99.90
12268;DHT22;6196;48.398;11.736;2023-08-08T02:00:47;11.70;99.90
12268;DHT22;6196;48.398;11.736;2023-08-08T02:03:14;11.60;99.90
12268;DHT22;6196;48.398;11.736;2023-08-08T02:05:41;11.60;99.90
12268;DHT22;6196;48.398;11.736;2023-08-08T02:08:08;11.60;99.90
12268;DHT22;6196;48.398;11.736;2023-08-08T02:10:36;11.60;99.90
12268;DHT22;6196;48.398;11.736;2023-08-08T02:13:03;11.60;99.90
12268;DHT22;6196;48.398;11.736;2023-08-08T02:15:30;11.60;99.90
12268;DHT22;6196;48.398;11.736;2023-08-08T02:17:57;11.60;99.90
12268;DHT22;6196;48.398;11.736;2023-08-08T02:20:24;11.50;99.90
12268;DHT22;6196;48.398;11.736;2023-08-08T02:22:51;11.50;99.90
12268;DHT22;6196;48.398;11.736;2023-08-08T02:25:17;11.50;99.90
12268;DHT22;6196;48.398;11.736;2023-08-08T02:27:44;11.50;99.90
12268;DHT22;6196;48.398;11.736;2023-08-08T02:30:12;11.40;99.90
12268;DHT22;6196;48.398;11.736;2023-08-08T02:32:39;11.40;99.90
12268;DHT22;6196;48.398;11.736;2023-08-08T02:35:06;11.40;99.90
12268;DHT22;6196;48.398;11.736;2023-08-08T02:37:34;11.30;99.90
12268;DHT22;6196;48.398;11.736;2023-08-08T02:40:01;11.30;99.90
12268;DHT22;6196;48.398;11.736;2023-08-08T02:42:28;11.20;99.90
12268;DHT22;6196;48.398;11.736;2023-08-08T02:44:55;11.10;99.90
12268;DHT22;6196;48.398;11.736;2023-08-08T02:47:22;11.10;99.90
12268;DHT22;6196;48.398;11.736;2023-08-08T02:49:50;11.00;99.90
12268;DHT22;6196;48.398;11.736;2023-08-08T02:52:17;10.90;99.90
12268;DHT22;6196;48.398;11.736;2023-08-08T02:54:44;10.90;99.90
12268;DHT22;6196;48.398;11.736;2023-08-08T02:57:11;10.90;99.90
12268;DHT22;6196;48.398;11.736;2023-08-08T02:59:38;10.80;99.90
12268;DHT22;6196;48.398;11.736;2023-08-08T03:02:05;10.80;99.90
12268;DHT22;6196;48.398;11.736;2023-08-08T03:04:32;10.80;99.90
12268;DHT22;6196;48.398;11.736;2023-08-08T03:06:59;10.80;99.90
12268;DHT22;6196;48.398;11.736;2023-08-08T03:09:29;10.80;99.90
12268;DHT22;6196;48.398;11.736;2023-08-08T03:11:56;10.80;99.90
12268;DHT22;6196;48.398;11.736;2023-08-08T03:14:24;10.90;99.90
12268;DHT22;6196;48.398;11.736;2023-08-08T03:16:51;11.00;99.90
12268;DHT22;6196;48.398;11.736;2023-08-08T03:19:18;11.00;99.90
12268;DHT22;6196;48.398;11.736;2023-08-08T03:21:45;11.10;99.90
12268;DHT22;6196;48.398;11.736;2023-08-08T03:24:11;11.10;99.90
12268;DHT22;6196;48.398;11.736;2023-08-08T03:26:38;11.20;99.90
12268;DHT22;6196;48.398;11.736;2023-08-08T03:29:05;11.20;99.90
12268;DHT22;6196;48.398;11.736;2023-08-08T03:31:36;11.40;99.90
12268;DHT22;6196;48.398;11.736;2023-08-08T03:34:03;11.40;99.90
12268;DHT22;6196;48.398;11.736;2023-08-08T03:36:31;11.50;99.90
12268;DHT22;6196;48.398;11.736;2023-08-08T03:38:58;11.50;99.90
12268;DHT22;6196;48.398;11.736;2023-08-08T03:41:25;11.50;99.90
12268;DHT22;6196;48.398;11.736;2023-08-08T03:43:51;11.50;99.90
12268;DHT22;6196;48.398;11.736;2023-08-08T03:46:18;11.50;99.90
12268;DHT22;6196;48.398;11.736;2023-08-08T03:48:45;11.50;99.90
12268;DHT22;6196;48.398;11.736;2023-08-08T03:51:12;11.60;99.90
12268;DHT22;6196;48.398;11.736;2023-08-08T03:53:39;11.60;99.90
12268;DHT22;6196;48.398;11.736;2023-08-08T03:56:06;11.60;99.90
12268;DHT22;6196;48.398;11.736;2023-08-08T03:58:34;11.60;99.90
12268;DHT22;6196;48.398;11.736;2023-08-08T04:01:00;11.60;99.90
12268;DHT22;6196;48.398;11.736;2023-08-08T04:03:28;11.70;99.90
12268;DHT22;6196;48.398;11.736;2023-08-08T04:05:55;11.70;99.90
12268;DHT22;6196;48.398;11.736;2023-08-08T04:08:22;11.70;99.90
12268;DHT22;6196;48.398;11.736;2023-08-08T04:10:49;11.80;99.90
12268;DHT22;6196;48.398;11.736;2023-08-08T04:13:15;11.80;99.90
12268;DHT22;6196;48.398;11.736;2023-08-08T04:15:42;11.80;99.90
12268;DHT22;6196;48.398;11.736;2023-08-08T04:18:11;11.80;99.90
12268;DHT22;6196;48.398;11.736;2023-08-08T04:20:38;11.90;99.90
12268;DHT22;6196;48.398;11.736;2023-08-08T04:23:05;11.90;99.90
12268;DHT22;6196;48.398;11.736;2023-08-08T04:25:32;11.90;99.90
12268;DHT22;6196;48.398;11.736;2023-08-08T04:27:59;12.00;99.90
12268;DHT22;6196;48.398;11.736;2023-08-08T04:30:26;11.90;99.90
12268;DHT22;6196;48.398;11.736;2023-08-08T04:32:53;11.90;99.90
12268;DHT22;6196;48.398;11.736;2023-08-08T04:35:20;11.90;99.90
12268;DHT22;6196;48.398;11.736;2023-08-08T04:37:47;12.00;99.90
12268;DHT22;6196;48.398;11.736;2023-08-08T04:40:14;12.00;99.90
12268;DHT22;6196;48.398;11.736;2023-08-08T04:42:41;12.00;99.90
12268;DHT22;6196;48.398;11.736;2023-08-08T04:45:08;12.00;99.90
12268;DHT22;6196;48.398;11.736;2023-08-08T04:47:35;12.10;99.90
12268;DHT22;6196;48.398;11.736;2023-08-08T04:50:02;12.10;99.90
12268;DHT22;6196;48.398;11.736;2023-08-08T04:52:30;12.10;99.90
12268;DHT22;6196;48.398;11.736;2023-08-08T04:54:56;12.20;99.90
12268;DHT22;6196;48.398;11.736;2023-08-08T04:57:23;12.30;99.90
12268;DHT22;6196;48.398;11.736;2023-08-08T04:59:50;12.40;99.90
12268;DHT22;6196;48.398;11.736;2023-08-08T05:02:17;12.40;99.90
12268;DHT22;6196;48.398;11.736;2023-08-08T05:04:44;12.30;99.90
12268;DHT22;6196;48.398;11.736;2023-08-08T05:07:11;12.40;99.90
12268;DHT22;6196;48.398;11.736;2023-08-08T05:09:38;12.40;99.90
12268;DHT22;6196;48.398;11.736;2023-08-08T05:12:05;12.40;99.90
12268;DHT22;6196;48.398;11.736;2023-08-08T05:14:32;12.50;99.90
12268;DHT22;6196;48.398;11.736;2023-08-08T05:16:59;12.60;99.90
12268;DHT22;6196;48.398;11.736;2023-08-08T05:19:27;12.60;99.90
12268;DHT22;6196;48.398;11.736;2023-08-08T05:21:54;12.70;99.90
12268;DHT22;6196;48.398;11.736;2023-08-08T05:24:21;12.80;99.90
12268;DHT22;6196;48.398;11.736;2023-08-08T05:26:48;12.90;99.90
12268;DHT22;6196;48.398;11.736;2023-08-08T05:29:15;13.00;99.90
12268;DHT22;6196;48.398;11.736;2023-08-08T05:31:42;13.10;99.90
12268;DHT22;6196;48.398;11.736;2023-08-08T05:34:08;13.20;99.90
12268;DHT22;6196;48.398;11.736;2023-08-08T05:36:35;13.30;99.90
12268;DHT22;6196;48.398;11.736;2023-08-08T05:39:03;13.40;99.90
12268;DHT22;6196;48.398;11.736;2023-08-08T05:41:30;13.50;99.90
12268;DHT22;6196;48.398;11.736;2023-08-08T05:43:57;13.70;99.90
12268;DHT22;6196;48.398;11.736;2023-08-08T05:46:24;13.90;99.90
12268;DHT22;6196;48.398;11.736;2023-08-08T05:48:51;13.70;99.90
12268;DHT22;6196;48.398;11.736;2023-08-08T05:51:18;13.90;99.90
12268;DHT22;6196;48.398;11.736;2023-08-08T05:53:44;14.10;99.90
12268;DHT22;6196;48.398;11.736;2023-08-08T05:56:12;14.10;99.90
12268;DHT22;6196;48.398;11.736;2023-08-08T05:58:40;14.30;99.90
12268;DHT22;6196;48.398;11.736;2023-08-08T06:01:06;14.40;99.90
12268;DHT22;6196;48.398;11.736;2023-08-08T06:03:36;14.40;99.90
12268;DHT22;6196;48.398;11.736;2023-08-08T06:06:04;14.60;99.90
12268;DHT22;6196;48.398;11.736;2023-08-08T06:08:31;14.30;99.90
12268;DHT22;6196;48.398;11.736;2023-08-08T06:10:58;14.40;99.90
12268;DHT22;6196;48.398;11.736;2023-08-08T06:13:25;14.50;99.90
12268;DHT22;6196;48.398;11.736;2023-08-08T06:15:52;14.60;99.90
12268;DHT22;6196;48.398;11.736;2023-08-08T06:18:19;14.70;99.90
12268;DHT22;6196;48.398;11.736;2023-08-08T06:20:46;14.80;99.90
12268;DHT22;6196;48.398;11.736;2023-08-08T06:23:13;14.80;99.90
12268;DHT22;6196;48.398;11.736;2023-08-08T06:25:41;14.70;99.90
12268;DHT22;6196;48.398;11.736;2023-08-08T06:28:09;14.60;99.90
12268;DHT22;6196;48.398;11.736;2023-08-08T06:30:35;15.00;99.90
12268;DHT22;6196;48.398;11.736;2023-08-08T06:33:02;15.10;99.90
12268;DHT22;6196;48.398;11.736;2023-08-08T06:35:30;15.60;99.90
12268;DHT22;6196;48.398;11.736;2023-08-08T06:37:56;15.90;99.90
12268;DHT22;6196;48.398;11.736;2023-08-08T06:40:23;16.10;99.90
12268;DHT22;6196;48.398;11.736;2023-08-08T06:42:50;16.50;99.90
12268;DHT22;6196;48.398;11.736;2023-08-08T06:45:17;16.50;99.90
12268;DHT22;6196;48.398;11.736;2023-08-08T06:47:44;16.70;99.90
12268;DHT22;6196;48.398;11.736;2023-08-08T06:50:12;16.40;99.90
12268;DHT22;6196;48.398;11.736;2023-08-08T06:52:39;16.30;99.90
12268;DHT22;6196;48.398;11.736;2023-08-08T06:55:06;16.90;99.90
12268;DHT22;6196;48.398;11.736;2023-08-08T06:57:34;17.20;99.90
12268;DHT22;6196;48.398;11.736;2023-08-08T07:00:03;17.80;99.90
12268;DHT22;6196;48.398;11.736;2023-08-08T07:02:35;18.00;99.90
12268;DHT22;6196;48.398;11.736;2023-08-08T07:05:02;17.90;99.90
12268;DHT22;6196;48.398;11.736;2023-08-08T07:07:30;18.00;99.90
12268;DHT22;6196;48.398;11.736;2023-08-08T07:09:59;18.30;99.90
12268;DHT22;6196;48.398;11.736;2023-08-08T07:12:26;17.80;99.90
12268;DHT22;6196;48.398;11.736;2023-08-08T07:14:53;18.40;99.90
12268;DHT22;6196;48.398;11.736;2023-08-08T07:17:20;18.50;99.90
12268;DHT22;6196;48.398;11.736;2023-08-08T07:19:47;18.50;99.90
12268;DHT22;6196;48.398;11.736;2023-08-08T07:22:14;18.90;99.90
12268;DHT22;6196;48.398;11.736;2023-08-08T07:24:41;19.20;99.90
12268;DHT22;6196;48.398;11.736;2023-08-08T07:27:08;19.20;99.90
12268;DHT22;6196;48.398;11.736;2023-08-08T07:29:35;19.60;99.90
12268;DHT22;6196;48.398;11.736;2023-08-08T07:32:05;19.20;99.90
12268;DHT22;6196;48.398;11.736;2023-08-08T07:34:32;19.80;99.90
12268;DHT22;6196;48.398;11.736;2023-08-08T07:36:59;20.10;99.90
12268;DHT22;6196;48.398;11.736;2023-08-08T07:39:26;20.10;99.90
12268;DHT22;6196;48.398;11.736;2023-08-08T07:41:53;20.20;99.90
12268;DHT22;6196;48.398;11.736;2023-08-08T07:44:20;20.60;99.90
12268;DHT22;6196;48.398;11.736;2023-08-08T07:46:48;20.60;99.90
12268;DHT22;6196;48.398;11.736;2023-08-08T07:49:15;20.20;99.90
12268;DHT22;6196;48.398;11.736;2023-08-08T07:51:41;20.30;99.90
12268;DHT22;6196;48.398;11.736;2023-08-08T07:54:08;20.70;99.90
12268;DHT22;6196;48.398;11.736;2023-08-08T07:56:37;21.00;99.90
12268;DHT22;6196;48.398;11.736;2023-08-08T07:59:04;21.00;99.90
12268;DHT22;6196;48.398;11.736;2023-08-08T08:01:31;21.20;99.90
12268;DHT22;6196;48.398;11.736;2023-08-08T08:03:58;21.20;99.90
12268;DHT22;6196;48.398;11.736;2023-08-08T08:06:25;21.50;99.90
12268;DHT22;6196;48.398;11.736;2023-08-08T08:08:53;21.80;99.90
12268;DHT22;6196;48.398;11.736;2023-08-08T08:11:20;21.20;99.90
12268;DHT22;6196;48.398;11.736;2023-08-08T08:13:47;21.30;99.90
12268;DHT22;6196;48.398;11.736;2023-08-08T08:16:14;21.00;99.90
12268;DHT22;6196;48.398;11.736;2023-08-08T08:18:41;21.10;99.90
12268;DHT22;6196;48.398;11.736;2023-08-08T08:21:09;21.40;99.90
12268;DHT22;6196;48.398;11.736;2023-08-08T08:23:35;21.50;99.90
12268;DHT22;6196;48.398;11.736;2023-08-08T08:26:02;20.40;99.90
12268;DHT22;6196;48.398;11.736;2023-08-08T08:28:29;20.40;99.90
12268;DHT22;6196;48.398;11.736;2023-08-08T08:30:56;20.40;99.90
12268;DHT22;6196;48.398;11.736;2023-08-08T08:33:23;20.30;99.90
12268;DHT22;6196;48.398;11.736;2023-08-08T08:35:50;20.10;99.90
12268;DHT22;6196;48.398;11.736;2023-08-08T08:38:17;20.10;99.90
12268;DHT22;6196;48.398;11.736;2023-08-08T08:40:45;20.70;99.90
12268;DHT22;6196;48.398;11.736;2023-08-08T08:43:13;21.00;99.90
12268;DHT22;6196;48.398;11.736;2023-08-08T08:45:43;20.70;99.90
12268;DHT22;6196;48.398;11.736;2023-08-08T08:48:10;21.10;99.90
12268;DHT22;6196;48.398;11.736;2023-08-08T08:50:38;20.70;99.90
12268;DHT22;6196;48.398;11.736;2023-08-08T08:53:06;21.40;99.90
12268;DHT22;6196;48.398;11.736;2023-08-08T08:55:34;21.70;99.90
12268;DHT22;6196;48.398;11.736;2023-08-08T08:58:01;22.40;99.90
12268;DHT22;6196;48.398;11.736;2023-08-08T09:00:28;22.30;99.90
12268;DHT22;6196;48.398;11.736;2023-08-08T09:02:57;21.80;99.90
12268;DHT22;6196;48.398;11.736;2023-08-08T09:05:28;21.30;99.90
12268;DHT22;6196;48.398;11.736;2023-08-08T09:07:55;21.50;99.90
12268;DHT22;6196;48.398;11.736;2023-08-08T09:10:24;21.90;99.90
12268;DHT22;6196;48.398;11.736;2023-08-08T09:12:51;22.10;99.90
12268;DHT22;6196;48.398;11.736;2023-08-08T09:15:17;22.50;99.90
12268;DHT22;6196;48.398;11.736;2023-08-08T09:17:45;22.20;99.90
12268;DHT22;6196;48.398;11.736;2023-08-08T09:20:15;22.30;99.90
12268;DHT22;6196;48.398;11.736;2023-08-08T09:22:43;22.90;99.90
12268;DHT22;6196;48.398;11.736;2023-08-08T09:25:11;23.50;99.90
12268;DHT22;6196;48.398;11.736;2023-08-08T09:27:41;23.00;99.90
12268;DHT22;6196;48.398;11.736;2023-08-08T09:30:09;22.80;99.90
12268;DHT22;6196;48.398;11.736;2023-08-08T09:32:38;22.70;99.90
12268;DHT22;6196;48.398;11.736;2023-08-08T09:35:05;22.20;99.90
12268;DHT22;6196;48.398;11.736;2023-08-08T09:37:37;22.10;99.90
12268;DHT22;6196;48.398;11.736;2023-08-08T09:40:05;22.60;99.90
12268;DHT22;6196;48.398;11.736;2023-08-08T09:42:35;22.50;99.90
12268;DHT22;6196;48.398;11.736;2023-08-08T09:45:02;23.00;99.90
12268;DHT22;6196;48.398;11.736;2023-08-08T09:47:30;22.70;99.90
12268;DHT22;6196;48.398;11.736;2023-08-08T09:50:01;22.80;99.90
12268;DHT22;6196;48.398;11.736;2023-08-08T09:52:33;22.60;99.90
12268;DHT22;6196;48.398;11.736;2023-08-08T09:55:01;22.20;99.90
12268;DHT22;6196;48.398;11.736;2023-08-08T09:57:29;22.10;99.90
12268;DHT22;6196;48.398;11.736;2023-08-08T09:59:57;21.80;99.90
12268;DHT22;6196;48.398;11.736;2023-08-08T10:02:24;21.80;99.90
12268;DHT22;6196;48.398;11.736;2023-08-08T10:04:53;21.60;99.90
12268;DHT22;6196;48.398;11.736;2023-08-08T10:07:22;22.20;99.90
12268;DHT22;6196;48.398;11.736;2023-08-08T10:09:49;22.30;99.90
12268;DHT22;6196;48.398;11.736;2023-08-08T10:12:16;23.00;99.90
12268;DHT22;6196;48.398;11.736;2023-08-08T10:14:45;23.40;99.90
12268;DHT22;6196;48.398;11.736;2023-08-08T10:17:15;23.70;99.90
12268;DHT22;6196;48.398;11.736;2023-08-08T10:19:55;23.50;99.90
12268;DHT22;6196;48.398;11.736;2023-08-08T10:22:24;23.00;99.90
12268;DHT22;6196;48.398;11.736;2023-08-08T10:24:53;23.10;99.90
12268;DHT22;6196;48.398;11.736;2023-08-08T10:27:36;22.80;99.90
12268;DHT22;6196;48.398;11.736;2023-08-08T10:30:07;23.20;99.90
12268;DHT22;6196;48.398;11.736;2023-08-08T10:32:43;23.30;99.90
12268;DHT22;6196;48.398;11.736;2023-08-08T10:35:11;23.40;99.90
12268;DHT22;6196;48.398;11.736;2023-08-08T10:37:39;24.10;99.90
12268;DHT22;6196;48.398;11.736;2023-08-08T10:40:07;24.30;99.90
12268;DHT22;6196;48.398;11.736;2023-08-08T10:42:42;23.70;99.90
12268;DHT22;6196;48.398;11.736;2023-08-08T10:45:14;23.70;99.90
12268;DHT22;6196;48.398;11.736;2023-08-08T10:47:43;23.50;99.90
12268;DHT22;6196;48.398;11.736;2023-08-08T10:50:13;23.10;99.90
12268;DHT22;6196;48.398;11.736;2023-08-08T10:52:54;23.30;99.90
12268;DHT22;6196;48.398;11.736;2023-08-08T10:55:34;23.50;99.90
12268;DHT22;6196;48.398;11.736;2023-08-08T10:58:05;23.50;99.90
12268;DHT22;6196;48.398;11.736;2023-08-08T11:00:42;23.80;99.90
12268;DHT22;6196;48.398;11.736;2023-08-08T11:03:10;23.70;99.90
12268;DHT22;6196;48.398;11.736;2023-08-08T11:05:37;23.70;99.90
12268;DHT22;6196;48.398;11.736;2023-08-08T11:08:06;23.60;99.90
12268;DHT22;6196;48.398;11.736;2023-08-08T11:10:38;23.60;99.90
12268;DHT22;6196;48.398;11.736;2023-08-08T11:13:07;23.50;99.90
12268;DHT22;6196;48.398;11.736;2023-08-08T11:15:37;23.50;99.90
12268;DHT22;6196;48.398;11.736;2023-08-08T11:18:06;23.50;99.90
12268;DHT22;6196;48.398;11.736;2023-08-08T11:20:34;23.30;99.90
12268;DHT22;6196;48.398;11.736;2023-08-08T11:23:02;23.10;99.90
12268;DHT22;6196;48.398;11.736;2023-08-08T11:25:32;22.60;99.90
12268;DHT22;6196;48.398;11.736;2023-08-08T11:27:59;22.70;99.90
12268;DHT22;6196;48.398;11.736;2023-08-08T11:30:32;23.30;99.90
12268;DHT22;6196;48.398;11.736;2023-08-08T11:33:01;23.70;99.90
12268;DHT22;6196;48.398;11.736;2023-08-08T11:35:31;23.80;99.90
12268;DHT22;6196;48.398;11.736;2023-08-08T11:37:58;24.10;99.90
12268;DHT22;6196;48.398;11.736;2023-08-08T11:40:28;24.20;99.90
12268;DHT22;6196;48.398;11.736;2023-08-08T11:42:56;24.40;99.90
12268;DHT22;6196;48.398;11.736;2023-08-08T11:45:24;24.10;99.90
12268;DHT22;6196;48.398;11.736;2023-08-08T11:47:53;23.50;99.90
12268;DHT22;6196;48.398;11.736;2023-08-08T11:50:22;24.10;99.90
12268;DHT22;6196;48.398;11.736;2023-08-08T11:52:52;24.00;99.90
12268;DHT22;6196;48.398;11.736;2023-08-08T11:55:21;23.80;99.90
12268;DHT22;6196;48.398;11.736;2023-08-08T11:57:55;23.90;99.90
12268;DHT22;6196;48.398;11.736;2023-08-08T12:00:29;23.20;99.90
12268;DHT22;6196;48.398;11.736;2023-08-08T12:02:58;23.60;99.90
12268;DHT22;6196;48.398;11.736;2023-08-08T12:05:27;23.80;99.90
12268;DHT22;6196;48.398;11.736;2023-08-08T12:07:55;23.90;99.90
12268;DHT22;6196;48.398;11.736;2023-08-08T12:10:23;24.00;99.90
12268;DHT22;6196;48.398;11.736;2023-08-08T12:12:55;24.30;99.90
12268;DHT22;6196;48.398;11.736;2023-08-08T12:15:28;25.10;99.90
12268;DHT22;6196;48.398;11.736;2023-08-08T12:17:58;25.50;99.90
12268;DHT22;6196;48.398;11.736;2023-08-08T12:20:28;25.50;99.90
12268;DHT22;6196;48.398;11.736;2023-08-08T12:22:56;25.10;99.90
12268;DHT22;6196;48.398;11.736;2023-08-08T12:25:24;24.90;99.90
12268;DHT22;6196;48.398;11.736;2023-08-08T12:27:51;24.70;99.90
12268;DHT22;6196;48.398;11.736;2023-08-08T12:30:18;24.80;99.90
12268;DHT22;6196;48.398;11.736;2023-08-08T12:32:45;24.80;99.90
12268;DHT22;6196;48.398;11.736;2023-08-08T12:35:12;24.90;99.90
12268;DHT22;6196;48.398;11.736;2023-08-08T12:37:38;25.50;99.90
12268;DHT22;6196;48.398;11.736;2023-08-08T12:40:06;25.60;99.90
12268;DHT22;6196;48.398;11.736;2023-08-08T12:42:34;25.40;99.90
12268;DHT22;6196;48.398;11.736;2023-08-08T12:45:01;25.70;99.90
12268;DHT22;6196;48.398;11.736;2023-08-08T12:47:28;25.80;99.90
12268;DHT22;6196;48.398;11.736;2023-08-08T12:49:56;25.60;99.90
12268;DHT22;6196;48.398;11.736;2023-08-08T12:52:23;25.80;99.90
12268;DHT22;6196;48.398;11.736;2023-08-08T12:54:52;26.10;99.90
12268;DHT22;6196;48.398;11.736;2023-08-08T12:57:19;25.60;99.90
12268;DHT22;6196;48.398;11.736;2023-08-08T12:59:45;24.40;99.90
12268;DHT22;6196;48.398;11.736;2023-08-08T13:02:12;24.50;99.90
12268;DHT22;6196;48.398;11.736;2023-08-08T13:04:39;25.10;99.90
12268;DHT22;6196;48.398;11.736;2023-08-08T13:07:06;25.60;99.90
12268;DHT22;6196;48.398;11.736;2023-08-08T13:09:34;25.10;99.90
12268;DHT22;6196;48.398;11.736;2023-08-08T13:12:01;24.60;99.90
12268;DHT22;6196;48.398;11.736;2023-08-08T13:14:28;24.30;99.90
12268;DHT22;6196;48.398;11.736;2023-08-08T13:16:55;24.90;99.90
12268;DHT22;6196;48.398;11.736;2023-08-08T13:19:22;24.90;99.90
12268;DHT22;6196;48.398;11.736;2023-08-08T13:21:52;25.30;99.90
12268;DHT22;6196;48.398;11.736;2023-08-08T13:24:20;25.80;99.90
12268;DHT22;6196;48.398;11.736;2023-08-08T13:26:50;26.00;99.90
12268;DHT22;6196;48.398;11.736;2023-08-08T13:29:17;25.60;99.90
12268;DHT22;6196;48.398;11.736;2023-08-08T13:31:43;25.20;99.90
12268;DHT22;6196;48.398;11.736;2023-08-08T13:34:10;24.60;99.90
12268;DHT22;6196;48.398;11.736;2023-08-08T13:36:37;24.50;99.90
12268;DHT22;6196;48.398;11.736;2023-08-08T13:39:04;25.10;99.90
12268;DHT22;6196;48.398;11.736;2023-08-08T13:41:31;25.90;99.90
12268;DHT22;6196;48.398;11.736;2023-08-08T13:43:58;26.50;99.90
12268;DHT22;6196;48.398;11.736;2023-08-08T13:46:25;26.60;99.90
12268;DHT22;6196;48.398;11.736;2023-08-08T13:48:52;26.30;99.90
12268;DHT22;6196;48.398;11.736;2023-08-08T13:51:19;26.70;99.90
12268;DHT22;6196;48.398;11.736;2023-08-08T13:53:46;26.70;99.00
12268;DHT22;6196;48.398;11.736;2023-08-08T13:56:16;26.50;98.90
12268;DHT22;6196;48.398;11.736;2023-08-08T13:58:44;26.80;98.20
12268;DHT22;6196;48.398;11.736;2023-08-08T14:01:11;26.80;99.30
12268;DHT22;6196;48.398;11.736;2023-08-08T14:03:37;26.60;97.60
12268;DHT22;6196;48.398;11.736;2023-08-08T14:06:05;26.40;99.50
12268;DHT22;6196;48.398;11.736;2023-08-08T14:08:32;26.50;99.90
12268;DHT22;6196;48.398;11.736;2023-08-08T14:10:59;26.90;99.90
12268;DHT22;6196;48.398;11.736;2023-08-08T14:13:26;26.60;99.90
12268;DHT22;6196;48.398;11.736;2023-08-08T14:15:53;26.70;99.90
12268;DHT22;6196;48.398;11.736;2023-08-08T14:18:20;26.40;99.30
12268;DHT22;6196;48.398;11.736;2023-08-08T14:20:47;26.50;99.90
12268;DHT22;6196;48.398;11.736;2023-08-08T14:23:14;26.50;99.90
12268;DHT22;6196;48.398;11.736;2023-08-08T14:25:41;26.60;99.90
12268;DHT22;6196;48.398;11.736;2023-08-08T14:28:08;26.40;99.50
12268;DHT22;6196;48.398;11.736;2023-08-08T14:30:35;26.20;99.90
12268;DHT22;6196;48.398;11.736;2023-08-08T14:33:02;25.80;99.90
12268;DHT22;6196;48.398;11.736;2023-08-08T14:35:29;26.00;99.90
12268;DHT22;6196;48.398;11.736;2023-08-08T14:37:56;26.30;99.50
12268;DHT22;6196;48.398;11.736;2023-08-08T14:40:23;27.10;99.80
12268;DHT22;6196;48.398;11.736;2023-08-08T14:42:50;27.10;99.90
12268;DHT22;6196;48.398;11.736;2023-08-08T14:45:19;26.80;98.00
12268;DHT22;6196;48.398;11.736;2023-08-08T14:47:48;26.60;99.60
12268;DHT22;6196;48.398;11.736;2023-08-08T14:50:16;26.40;99.90
12268;DHT22;6196;48.398;11.736;2023-08-08T14:52:43;25.90;98.30
12268;DHT22;6196;48.398;11.736;2023-08-08T14:55:10;26.40;96.20
12268;DHT22;6196;48.398;11.736;2023-08-08T14:57:37;26.50;96.40
12268;DHT22;6196;48.398;11.736;2023-08-08T15:00:05;26.50;94.70
12268;DHT22;6196;48.398;11.736;2023-08-08T15:02:33;26.60;97.10
12268;DHT22;6196;48.398;11.736;2023-08-08T15:05:00;26.50;96.70
12268;DHT22;6196;48.398;11.736;2023-08-08T15:07:27;26.40;94.80
12268;DHT22;6196;48.398;11.736;2023-08-08T15:09:54;26.40;95.60
12268;DHT22;6196;48.398;11.736;2023-08-08T15:12:21;26.20;97.40
12268;DHT22;6196;48.398;11.736;2023-08-08T15:14:48;25.40;97.90
12268;DHT22;6196;48.398;11.736;2023-08-08T15:17:17;25.70;98.10
12268;DHT22;6196;48.398;11.736;2023-08-08T15:19:44;25.50;98.40
12268;DHT22;6196;48.398;11.736;2023-08-08T15:22:11;26.30;99.00
12268;DHT22;6196;48.398;11.736;2023-08-08T15:24:37;26.60;97.40
12268;DHT22;6196;48.398;11.736;2023-08-08T15:27:04;26.80;97.50
12268;DHT22;6196;48.398;11.736;2023-08-08T15:29:32;27.00;98.50
12268;DHT22;6196;48.398;11.736;2023-08-08T15:31:59;27.20;97.20
12268;DHT22;6196;48.398;11.736;2023-08-08T15:34:26;27.40;97.10